Agana, Guam
Current Conditions -  °F | °C
As of 6:54 PM on Thursday 27 Nov 2014 (Local Time) from PGUM Reporting Station
Scattered Clouds Scattered Clouds  
Wind Chill: 83°   Ceiling: Unl
Heat Index: 91°   Visibility: 10mi
Dew Point: 76°   Wind: 16mph
Humidity: 79%   Direction: 60°ENE
Pressure: 29.87"   Gusts: NA
Location:  13.4751°N, 144.7484°E
Report Text: PGUM 270854Z 06014KT 10SM FEW020 SCT060 28/24 A2987 RMK AO2 SLP108 60000 T02830244 53014 PNO $
Loading
Personal Weather Stations






























Interactive Weather Map New forecast layout! Learn more

10-Day Weather Forecast

Advertisements
Track Severe Weather on mobile